San Juan Enterprise — WDD9563 — position and weather

sailwx.info

Track history (hours):
 
Tides and Currents Weather Stations Pressure Air Temp Water Temp Dewpoint Dewpoint Depression Visibility Wind Speed Wind Dir Waves Ship Positions

San Juan Enterprise

Owner: SAN JUAN MARINE FREIGHT CO LLC, ANACORTES, WA. More information available from US FCC via Universal Licensing System and Coast Guard Vessel Documentation Center.

Last reported at 2016-May-29 01:31 UTC. Time now 2016-May-29 01:58 UTC.
Position N 48°31' W 122°36'.

Length 30 m.

MMSI: 367313160.

Date/timePositionNaut miles runAvg speedWind from/ knotsBaromVisibWave heightAir tempDewpointWater temp
2016-May-29 01:31N 48°31' W 122°36'0 0.0
2016-May-29 00:25N 48°31' W 122°36'0 0.0
2016-May-28 23:31N 48°31' W 122°36'0 0.0
2016-May-28 22:31N 48°31' W 122°36'0 0.0
2016-May-28 21:25N 48°31' W 122°36'0 0.0
2016-May-28 20:31N 48°31' W 122°36'0 0.0
2016-May-28 19:31N 48°31' W 122°36'0 0.0
2016-May-28 18:31N 48°31' W 122°36'0 0.0
2016-May-28 17:31N 48°31' W 122°36'0 0.0
2016-May-28 16:31N 48°31' W 122°36'0 0.0
2016-May-28 15:31N 48°31' W 122°36'0 0.0
2016-May-28 14:31N 48°31' W 122°36'0 0.0
2016-May-28 13:31N 48°31' W 122°36'0 0.0
2016-May-28 12:31N 48°31' W 122°36'0 0.0
2016-May-28 11:31N 48°31' W 122°36'0 0.0
2016-May-28 10:31N 48°31' W 122°36'0 0.0
2016-May-28 09:31N 48°31' W 122°36'0 0.0
2016-May-28 08:31N 48°31' W 122°36'0 0.0
2016-May-28 07:31N 48°31' W 122°36'0 0.0
2016-May-28 06:31N 48°31' W 122°36'0 0.0
2016-May-28 05:31N 48°31' W 122°36'0 0.0
2016-May-28 04:31N 48°31' W 122°36'0 0.0
2016-May-28 03:31N 48°31' W 122°36'0 0.0
2016-May-28 02:31N 48°31' W 122°36'0 0.0
2016-May-28 01:31N 48°31' W 122°36'0 0.0
2016-May-28 00:31N 48°31' W 122°36'0 0.0
2016-May-27 23:31N 48°31' W 122°36'0 0.0
2016-May-27 22:31N 48°31' W 122°36'0 0.0
2016-May-27 21:31N 48°31' W 122°36'0 0.0
2016-May-27 20:31N 48°31' W 122°36'0 0.0
2016-May-27 19:33N 48°31' W 122°36'5 4.7
2016-May-27 18:33N 48°32' W 122°43'7 6.8
2016-May-27 17:33N 48°34' W 122°53'3 2.8
2016-May-27 16:33N 48°33' W 122°49'3 2.8
2016-May-27 15:33N 48°33' W 122°53'7 7.0
2016-May-27 14:33N 48°32' W 122°43'5 4.5
2016-May-27 13:32N 48°31' W 122°36'0 0.0
2016-May-27 12:32N 48°31' W 122°36'0 0.0
2016-May-27 11:32N 48°31' W 122°36'0 0.0
2016-May-27 10:26N 48°31' W 122°36'0 0.0
2016-May-27 09:32N 48°31' W 122°36'0 0.0
2016-May-27 08:32N 48°31' W 122°36'0 0.0
2016-May-27 07:32N 48°31' W 122°36'0 0.0
2016-May-27 06:32N 48°31' W 122°36'0 0.0
2016-May-27 05:32N 48°31' W 122°36'0 0.0
2016-May-27 04:32N 48°31' W 122°36'0 0.0
2016-May-27 03:32N 48°31' W 122°36'0 0.0
2016-May-27 02:32N 48°31' W 122°36'0 0.0
2016-May-27 01:32N 48°31' W 122°36'0 0.0
2016-May-27 00:32N 48°31' W 122°36'2 2.2
2016-May-26 23:33N 48°32' W 122°40'8 7.8
2016-May-26 22:33N 48°36' W 122°49'0 0.0
2016-May-26 21:33N 48°36' W 122°49'0 0.0
2016-May-26 20:33N 48°36' W 122°49'1 1.2
2016-May-26 19:33N 48°35' W 122°49'1 1.2
2016-May-26 18:33N 48°36' W 122°49'1 1.2
2016-May-26 17:33N 48°35' W 122°49'1 1.2
2016-May-26 16:33N 48°36' W 122°49'0 0.4
2016-May-26 15:33N 48°36' W 122°49'3 3.3
2016-May-26 14:33N 48°34' W 122°45'6 6.3
2016-May-26 13:33N 48°31' W 122°36'0 0.0
2016-May-26 12:33N 48°31' W 122°36'0 0.0
2016-May-26 11:33N 48°31' W 122°36'0 0.0
2016-May-26 10:33N 48°31' W 122°36'0 0.0
2016-May-26 09:33N 48°31' W 122°36'0 0.0
2016-May-26 08:33N 48°31' W 122°36'0 0.0
2016-May-26 07:33N 48°31' W 122°36'0 0.0
2016-May-26 06:33N 48°31' W 122°36'0 0.0
2016-May-26 05:33N 48°31' W 122°36'0 0.0
2016-May-26 04:33N 48°31' W 122°36'0 0.0
2016-May-26 03:33N 48°31' W 122°36'0 0.0
2016-May-26 02:33N 48°31' W 122°36'3 3.1
2016-May-26 01:33N 48°32' W 122°41'7 6.8
2016-May-26 00:33N 48°36' W 122°49'1 1.1
2016-May-25 23:33N 48°35' W 122°49'0 0.0
2016-May-25 22:33N 48°35' W 122°49'0 0.4
2016-May-25 21:33N 48°36' W 122°49'1 0.7
2016-May-25 20:33N 48°36' W 122°49'1 1.0
2016-May-25 19:33N 48°35' W 122°49'1 1.2
2016-May-25 18:33N 48°36' W 122°49'1 0.7
2016-May-25 17:33N 48°36' W 122°49'1 0.6
2016-May-25 16:32N 48°36' W 122°49'0 0.0
2016-May-25 15:33N 48°36' W 122°49'0 0.0
2016-May-25 14:33N 48°36' W 122°49'3 3.0
2016-May-25 13:33N 48°33' W 122°49'7 7.1
2016-May-25 12:33N 48°31' W 122°39'2 1.7
2016-May-25 11:31N 48°31' W 122°36'0 0.0
2016-May-25 10:31N 48°31' W 122°36'0 0.0
2016-May-25 09:31N 48°31' W 122°36'0 0.0
2016-May-25 08:31N 48°31' W 122°36'0 0.0
2016-May-25 07:31N 48°31' W 122°36'0 0.0
2016-May-25 06:31N 48°31' W 122°36'0 0.0
2016-May-25 05:31N 48°31' W 122°36'0 0.0
2016-May-25 04:31N 48°31' W 122°36'0 0.0
2016-May-25 03:31N 48°31' W 122°36'0 0.0
2016-May-25 02:31N 48°31' W 122°36'0 0.0
2016-May-25 01:33N 48°31' W 122°36'7 6.7
2016-May-25 00:33N 48°33' W 122°46'3 2.8
2016-May-24 23:33N 48°35' W 122°49'0 0.5
2016-May-24 22:33N 48°36' W 122°49'1 0.8
2016-May-24 21:33N 48°36' W 122°49'0 0.0
2016-May-24 20:33N 48°36' W 122°49'1 1.2
2016-May-24 19:33N 48°35' W 122°49'1 1.2
2016-May-24 18:33N 48°36' W 122°49'1 0.8
2016-May-24 17:33N 48°36' W 122°49'1 0.5
2016-May-24 16:33N 48°35' W 122°49'0 0.0
2016-May-24 15:33N 48°35' W 122°49'1 1.2
2016-May-24 14:33N 48°36' W 122°49'4 4.2
2016-May-24 13:33N 48°33' W 122°44'6 5.3
2016-May-24 12:28N 48°31' W 122°36'0 0.0
2016-May-24 11:28N 48°31' W 122°36'0 0.0
2016-May-24 10:28N 48°31' W 122°36'0 0.0
2016-May-24 09:22N 48°31' W 122°36'0 0.0
2016-May-24 08:28N 48°31' W 122°36'0 0.0
2016-May-24 07:28N 48°31' W 122°36'0 0.0
2016-May-24 06:28N 48°31' W 122°36'0 0.0
2016-May-24 05:28N 48°31' W 122°36'0 0.0
2016-May-24 04:22N 48°31' W 122°36'0 0.0
2016-May-24 03:28N 48°31' W 122°36'0 0.0
2016-May-24 02:28N 48°31' W 122°36'0 0.0
2016-May-24 01:28N 48°31' W 122°36'0 0.0
2016-May-24 00:33N 48°31' W 122°36'1 0.6
2016-May-23 23:33N 48°31' W 122°36'2 2.0
2016-May-23 22:33N 48°31' W 122°39'7 6.0
2016-May-23 21:28N 48°25' W 122°37'3 1.1
2016-May-23 18:32N 48°26' W 122°41'6 6.2
2016-May-23 17:33N 48°31' W 122°37'0 0.0
2016-May-23 16:33N 48°31' W 122°37'0 0.4
2016-May-23 15:33N 48°31' W 122°36'0 0.0
2016-May-23 14:33N 48°31' W 122°36'0 0.0
2016-May-23 13:33N 48°31' W 122°36'0 0.0
2016-May-23 12:33N 48°31' W 122°36'0 0.0
2016-May-23 11:33N 48°31' W 122°36'0 0.0
2016-May-23 10:33N 48°31' W 122°36'0 0.0
2016-May-23 09:33N 48°31' W 122°36'0 0.0
2016-May-23 08:33N 48°31' W 122°36'0 0.0
2016-May-23 07:21N 48°31' W 122°36'0 0.0
2016-May-23 06:27N 48°31' W 122°36'0 0.0
2016-May-23 05:33N 48°31' W 122°36'0 0.0
2016-May-23 04:33N 48°31' W 122°36'0 0.0
2016-May-23 03:27N 48°31' W 122°36'0 0.0
2016-May-23 02:33N 48°31' W 122°36'0 0.0
2016-May-23 01:21N 48°31' W 122°36'0 0.0
2016-May-23 00:33N 48°31' W 122°36'0 0.0
2016-May-22 23:33N 48°31' W 122°36'0 0.0
2016-May-22 22:33N 48°31' W 122°36'0 0.0
2016-May-22 21:33N 48°31' W 122°36'0 0.0
2016-May-22 20:33N 48°31' W 122°36'0 0.0
2016-May-22 19:33N 48°31' W 122°36'0 0.0
2016-May-22 18:33N 48°31' W 122°36'0 0.0
2016-May-22 17:33N 48°31' W 122°36'0 0.0
2016-May-22 16:33N 48°31' W 122°36'0 0.0
2016-May-22 15:33N 48°31' W 122°36'0 0.0
2016-May-22 14:33N 48°31' W 122°36'0 0.0
2016-May-22 13:27N 48°31' W 122°36'0 0.0
2016-May-22 12:27N 48°31' W 122°36'0 0.0
2016-May-22 11:33N 48°31' W 122°36'0 0.0
2016-May-22 10:27N 48°31' W 122°36'0 0.0
2016-May-22 09:33N 48°31' W 122°36'0 0.0
2016-May-22 08:33N 48°31' W 122°36'0 0.0
2016-May-22 07:33N 48°31' W 122°36'0 0.0
2016-May-22 06:33N 48°31' W 122°36'0 0.0
2016-May-22 05:33N 48°31' W 122°36'0 0.0
2016-May-22 04:33N 48°31' W 122°36'0 0.0
2016-May-22 03:33N 48°31' W 122°36'0 0.0
2016-May-22 02:27N 48°31' W 122°36'0 0.0
2016-May-22 01:33N 48°31' W 122°36'0 0.0
2016-May-22 00:33N 48°31' W 122°36'0 0.0
2016-May-21 23:33N 48°31' W 122°36'0 0.0
2016-May-21 22:33N 48°31' W 122°36'0 0.0
2016-May-21 21:33N 48°31' W 122°36'0 0.0
2016-May-21 20:33N 48°31' W 122°36'0 0.0
2016-May-21 19:33N 48°31' W 122°36'0 0.0
2016-May-21 18:33N 48°31' W 122°36'0 0.0
2016-May-21 17:33N 48°31' W 122°36'0 0.0
2016-May-21 16:33N 48°31' W 122°36'0 0.0
2016-May-21 15:33N 48°31' W 122°36'0 0.0
2016-May-21 14:33N 48°31' W 122°36'0 0.0
2016-May-21 13:33N 48°31' W 122°36'0 0.0
2016-May-21 12:33N 48°31' W 122°36'0 0.0
2016-May-21 11:26N 48°31' W 122°36'0 0.0
2016-May-21 10:26N 48°31' W 122°36'0 0.0
2016-May-21 09:33N 48°31' W 122°36'0 0.0
2016-May-21 08:33N 48°31' W 122°36'0 0.0
2016-May-21 07:20N 48°31' W 122°36'0 0.0
2016-May-21 06:33N 48°31' W 122°36'0 0.0
2016-May-21 05:32N 48°31' W 122°36'0 0.0
2016-May-21 04:32N 48°31' W 122°36'0 0.0
2016-May-21 03:32N 48°31' W 122°36'0 0.0
2016-May-21 02:32N 48°31' W 122°36'0 0.0
2016-May-21 01:32N 48°31' W 122°36'0 0.0
2016-May-21 00:32N 48°31' W 122°36'0 0.0
2016-May-20 23:32N 48°31' W 122°36'0 0.0
2016-May-20 22:32N 48°31' W 122°36'0 0.0
2016-May-20 21:32N 48°31' W 122°36'0 0.0
2016-May-20 20:32N 48°31' W 122°36'0 0.0
2016-May-20 19:32N 48°31' W 122°36'0 0.0
2016-May-20 18:32N 48°31' W 122°36'0 0.0
2016-May-20 17:32N 48°31' W 122°36'0 0.0
2016-May-20 16:32N 48°31' W 122°36'0 0.0
2016-May-20 15:32N 48°31' W 122°36'0 0.0
2016-May-20 14:32N 48°31' W 122°36'0 0.0
2016-May-20 13:32N 48°31' W 122°36'0 0.0
2016-May-20 12:32N 48°31' W 122°36'0 0.0
2016-May-20 11:32N 48°31' W 122°36'0 0.0
2016-May-20 10:32N 48°31' W 122°36'0 0.0
2016-May-20 09:32N 48°31' W 122°36'0 0.0
2016-May-20 08:32N 48°31' W 122°36'0 0.0
2016-May-20 07:32N 48°31' W 122°36'0 0.0
2016-May-20 06:32N 48°31' W 122°36'2 1.1
2016-May-20 04:33N 48°32' W 122°40'4 3.5
2016-May-20 03:33N 48°34' W 122°44'0 0.0
2016-May-20 02:33N 48°34' W 122°44'2 2.2
2016-May-20 01:33N 48°32' W 122°42'1 0.7
2016-May-20 00:33N 48°32' W 122°41'6 6.5
2016-May-19 23:33N 48°35' W 122°50'1 1.5
2016-May-19 22:33N 48°36' W 122°49'6 5.7
2016-May-19 21:33N 48°32' W 122°43'5 4.7
2016-May-19 20:34N 48°31' W 122°36'6 5.9
2016-May-19 19:33N 48°32' W 122°45'8 7.7
2016-May-19 18:34N 48°33' W 122°57'2 2.5
2016-May-19 17:33N 48°32' W 122°60'0 0.4
2016-May-19 16:33N 48°32' W 122°60'7 6.8
2016-May-19 15:33N 48°32' W 122°50'9 8.7
2016-May-19 14:34N 48°31' W 122°37'0 0.2
2016-May-19 13:28N 48°31' W 122°36'0 0.0
2016-May-19 12:28N 48°31' W 122°36'0 0.0
2016-May-19 11:28N 48°31' W 122°36'0 0.0
2016-May-19 10:28N 48°31' W 122°36'0 0.0
2016-May-19 09:28N 48°31' W 122°36'0 0.0
2016-May-19 08:28N 48°31' W 122°36'0 0.0
2016-May-19 07:28N 48°31' W 122°36'0 0.0
2016-May-19 06:28N 48°31' W 122°36'0 0.0
2016-May-19 04:28N 48°31' W 122°36'0 0.0
2016-May-19 03:28N 48°31' W 122°36'0 0.0
2016-May-19 02:28N 48°31' W 122°36'  
Track history (hours):
 
Tides and Currents Weather Stations Pressure Air Temp Water Temp Dewpoint Dewpoint Depression Visibility Wind Speed Wind Dir Waves Ship Positions

San Juan Enterprise

Owner: SAN JUAN MARINE FREIGHT CO LLC, ANACORTES, WA. More information available from US FCC via Universal Licensing System and Coast Guard Vessel Documentation Center.

Last reported at 2016-May-29 01:31 UTC. Time now 2016-May-29 01:58 UTC.
Position N 48°31' W 122°36'.

Length 30 m.

MMSI: 367313160.

Date/timePositionNaut miles runAvg speedWind from/ knotsBaromVisibWave heightAir tempDewpointWater temp
2016-May-29 01:31N 48°31' W 122°36'0 0.0
2016-May-29 00:25N 48°31' W 122°36'0 0.0
2016-May-28 23:31N 48°31' W 122°36'0 0.0
2016-May-28 22:31N 48°31' W 122°36'0 0.0
2016-May-28 21:25N 48°31' W 122°36'0 0.0
2016-May-28 20:31N 48°31' W 122°36'0 0.0
2016-May-28 19:31N 48°31' W 122°36'0 0.0
2016-May-28 18:31N 48°31' W 122°36'0 0.0
2016-May-28 17:31N 48°31' W 122°36'0 0.0
2016-May-28 16:31N 48°31' W 122°36'0 0.0
2016-May-28 15:31N 48°31' W 122°36'0 0.0
2016-May-28 14:31N 48°31' W 122°36'0 0.0
2016-May-28 13:31N 48°31' W 122°36'0 0.0
2016-May-28 12:31N 48°31' W 122°36'0 0.0
2016-May-28 11:31N 48°31' W 122°36'0 0.0
2016-May-28 10:31N 48°31' W 122°36'0 0.0
2016-May-28 09:31N 48°31' W 122°36'0 0.0
2016-May-28 08:31N 48°31' W 122°36'0 0.0
2016-May-28 07:31N 48°31' W 122°36'0 0.0
2016-May-28 06:31N 48°31' W 122°36'0 0.0
2016-May-28 05:31N 48°31' W 122°36'0 0.0
2016-May-28 04:31N 48°31' W 122°36'0 0.0
2016-May-28 03:31N 48°31' W 122°36'0 0.0
2016-May-28 02:31N 48°31' W 122°36'0 0.0
2016-May-28 01:31N 48°31' W 122°36'0 0.0
2016-May-28 00:31N 48°31' W 122°36'0 0.0
2016-May-27 23:31N 48°31' W 122°36'0 0.0
2016-May-27 22:31N 48°31' W 122°36'0 0.0
2016-May-27 21:31N 48°31' W 122°36'0 0.0
2016-May-27 20:31N 48°31' W 122°36'0 0.0
2016-May-27 19:33N 48°31' W 122°36'5 4.7
2016-May-27 18:33N 48°32' W 122°43'7 6.8
2016-May-27 17:33N 48°34' W 122°53'3 2.8
2016-May-27 16:33N 48°33' W 122°49'3 2.8
2016-May-27 15:33N 48°33' W 122°53'7 7.0
2016-May-27 14:33N 48°32' W 122°43'5 4.5
2016-May-27 13:32N 48°31' W 122°36'0 0.0
2016-May-27 12:32N 48°31' W 122°36'0 0.0
2016-May-27 11:32N 48°31' W 122°36'0 0.0
2016-May-27 10:26N 48°31' W 122°36'0 0.0
2016-May-27 09:32N 48°31' W 122°36'0 0.0
2016-May-27 08:32N 48°31' W 122°36'0 0.0
2016-May-27 07:32N 48°31' W 122°36'0 0.0
2016-May-27 06:32N 48°31' W 122°36'0 0.0
2016-May-27 05:32N 48°31' W 122°36'0 0.0
2016-May-27 04:32N 48°31' W 122°36'0 0.0
2016-May-27 03:32N 48°31' W 122°36'0 0.0
2016-May-27 02:32N 48°31' W 122°36'0 0.0
2016-May-27 01:32N 48°31' W 122°36'0 0.0
2016-May-27 00:32N 48°31' W 122°36'2 2.2
2016-May-26 23:33N 48°32' W 122°40'8 7.8
2016-May-26 22:33N 48°36' W 122°49'0 0.0
2016-May-26 21:33N 48°36' W 122°49'0 0.0
2016-May-26 20:33N 48°36' W 122°49'1 1.2
2016-May-26 19:33N 48°35' W 122°49'1 1.2
2016-May-26 18:33N 48°36' W 122°49'1 1.2
2016-May-26 17:33N 48°35' W 122°49'1 1.2
2016-May-26 16:33N 48°36' W 122°49'0 0.4
2016-May-26 15:33N 48°36' W 122°49'3 3.3
2016-May-26 14:33N 48°34' W 122°45'6 6.3
2016-May-26 13:33N 48°31' W 122°36'0 0.0
2016-May-26 12:33N 48°31' W 122°36'0 0.0
2016-May-26 11:33N 48°31' W 122°36'0 0.0
2016-May-26 10:33N 48°31' W 122°36'0 0.0
2016-May-26 09:33N 48°31' W 122°36'0 0.0
2016-May-26 08:33N 48°31' W 122°36'0 0.0
2016-May-26 07:33N 48°31' W 122°36'0 0.0
2016-May-26 06:33N 48°31' W 122°36'0 0.0
2016-May-26 05:33N 48°31' W 122°36'0 0.0
2016-May-26 04:33N 48°31' W 122°36'0 0.0
2016-May-26 03:33N 48°31' W 122°36'0 0.0
2016-May-26 02:33N 48°31' W 122°36'3 3.1
2016-May-26 01:33N 48°32' W 122°41'7 6.8
2016-May-26 00:33N 48°36' W 122°49'1 1.1
2016-May-25 23:33N 48°35' W 122°49'0 0.0
2016-May-25 22:33N 48°35' W 122°49'0 0.4
2016-May-25 21:33N 48°36' W 122°49'1 0.7
2016-May-25 20:33N 48°36' W 122°49'1 1.0
2016-May-25 19:33N 48°35' W 122°49'1 1.2
2016-May-25 18:33N 48°36' W 122°49'1 0.7
2016-May-25 17:33N 48°36' W 122°49'1 0.6
2016-May-25 16:32N 48°36' W 122°49'0 0.0
2016-May-25 15:33N 48°36' W 122°49'0 0.0
2016-May-25 14:33N 48°36' W 122°49'3 3.0
2016-May-25 13:33N 48°33' W 122°49'7 7.1
2016-May-25 12:33N 48°31' W 122°39'2 1.7
2016-May-25 11:31N 48°31' W 122°36'0 0.0
2016-May-25 10:31N 48°31' W 122°36'0 0.0
2016-May-25 09:31N 48°31' W 122°36'0 0.0
2016-May-25 08:31N 48°31' W 122°36'0 0.0
2016-May-25 07:31N 48°31' W 122°36'0 0.0
2016-May-25 06:31N 48°31' W 122°36'0 0.0
2016-May-25 05:31N 48°31' W 122°36'0 0.0
2016-May-25 04:31N 48°31' W 122°36'0 0.0
2016-May-25 03:31N 48°31' W 122°36'0 0.0
2016-May-25 02:31N 48°31' W 122°36'0 0.0
2016-May-25 01:33N 48°31' W 122°36'7 6.7
2016-May-25 00:33N 48°33' W 122°46'3 2.8
2016-May-24 23:33N 48°35' W 122°49'0 0.5
2016-May-24 22:33N 48°36' W 122°49'1 0.8
2016-May-24 21:33N 48°36' W 122°49'0 0.0
2016-May-24 20:33N 48°36' W 122°49'1 1.2
2016-May-24 19:33N 48°35' W 122°49'1 1.2
2016-May-24 18:33N 48°36' W 122°49'1 0.8
2016-May-24 17:33N 48°36' W 122°49'1 0.5
2016-May-24 16:33N 48°35' W 122°49'0 0.0
2016-May-24 15:33N 48°35' W 122°49'1 1.2
2016-May-24 14:33N 48°36' W 122°49'4 4.2
2016-May-24 13:33N 48°33' W 122°44'6 5.3
2016-May-24 12:28N 48°31' W 122°36'0 0.0
2016-May-24 11:28N 48°31' W 122°36'0 0.0
2016-May-24 10:28N 48°31' W 122°36'0 0.0
2016-May-24 09:22N 48°31' W 122°36'0 0.0
2016-May-24 08:28N 48°31' W 122°36'0 0.0
2016-May-24 07:28N 48°31' W 122°36'0 0.0
2016-May-24 06:28N 48°31' W 122°36'0 0.0
2016-May-24 05:28N 48°31' W 122°36'0 0.0
2016-May-24 04:22N 48°31' W 122°36'0 0.0
2016-May-24 03:28N 48°31' W 122°36'0 0.0
2016-May-24 02:28N 48°31' W 122°36'0 0.0
2016-May-24 01:28N 48°31' W 122°36'0 0.0
2016-May-24 00:33N 48°31' W 122°36'1 0.6
2016-May-23 23:33N 48°31' W 122°36'2 2.0
2016-May-23 22:33N 48°31' W 122°39'7 6.0
2016-May-23 21:28N 48°25' W 122°37'3 1.1
2016-May-23 18:32N 48°26' W 122°41'6 6.2
2016-May-23 17:33N 48°31' W 122°37'0 0.0
2016-May-23 16:33N 48°31' W 122°37'0 0.4
2016-May-23 15:33N 48°31' W 122°36'0 0.0
2016-May-23 14:33N 48°31' W 122°36'0 0.0
2016-May-23 13:33N 48°31' W 122°36'0 0.0
2016-May-23 12:33N 48°31' W 122°36'0 0.0
2016-May-23 11:33N 48°31' W 122°36'0 0.0
2016-May-23 10:33N 48°31' W 122°36'0 0.0
2016-May-23 09:33N 48°31' W 122°36'0 0.0
2016-May-23 08:33N 48°31' W 122°36'0 0.0
2016-May-23 07:21N 48°31' W 122°36'0 0.0
2016-May-23 06:27N 48°31' W 122°36'0 0.0
2016-May-23 05:33N 48°31' W 122°36'0 0.0
2016-May-23 04:33N 48°31' W 122°36'0 0.0
2016-May-23 03:27N 48°31' W 122°36'0 0.0
2016-May-23 02:33N 48°31' W 122°36'0 0.0
2016-May-23 01:21N 48°31' W 122°36'0 0.0
2016-May-23 00:33N 48°31' W 122°36'0 0.0
2016-May-22 23:33N 48°31' W 122°36'0 0.0
2016-May-22 22:33N 48°31' W 122°36'0 0.0
2016-May-22 21:33N 48°31' W 122°36'0 0.0
2016-May-22 20:33N 48°31' W 122°36'0 0.0
2016-May-22 19:33N 48°31' W 122°36'0 0.0
2016-May-22 18:33N 48°31' W 122°36'0 0.0
2016-May-22 17:33N 48°31' W 122°36'0 0.0
2016-May-22 16:33N 48°31' W 122°36'0 0.0
2016-May-22 15:33N 48°31' W 122°36'0 0.0
2016-May-22 14:33N 48°31' W 122°36'0 0.0
2016-May-22 13:27N 48°31' W 122°36'0 0.0
2016-May-22 12:27N 48°31' W 122°36'0 0.0
2016-May-22 11:33N 48°31' W 122°36'0 0.0
2016-May-22 10:27N 48°31' W 122°36'0 0.0
2016-May-22 09:33N 48°31' W 122°36'0 0.0
2016-May-22 08:33N 48°31' W 122°36'0 0.0
2016-May-22 07:33N 48°31' W 122°36'0 0.0
2016-May-22 06:33N 48°31' W 122°36'0 0.0
2016-May-22 05:33N 48°31' W 122°36'0 0.0
2016-May-22 04:33N 48°31' W 122°36'0 0.0
2016-May-22 03:33N 48°31' W 122°36'0 0.0
2016-May-22 02:27N 48°31' W 122°36'0 0.0
2016-May-22 01:33N 48°31' W 122°36'0 0.0
2016-May-22 00:33N 48°31' W 122°36'0 0.0
2016-May-21 23:33N 48°31' W 122°36'0 0.0
2016-May-21 22:33N 48°31' W 122°36'0 0.0
2016-May-21 21:33N 48°31' W 122°36'0 0.0
2016-May-21 20:33N 48°31' W 122°36'0 0.0
2016-May-21 19:33N 48°31' W 122°36'0 0.0
2016-May-21 18:33N 48°31' W 122°36'0 0.0
2016-May-21 17:33N 48°31' W 122°36'0 0.0
2016-May-21 16:33N 48°31' W 122°36'0 0.0
2016-May-21 15:33N 48°31' W 122°36'0 0.0
2016-May-21 14:33N 48°31' W 122°36'0 0.0
2016-May-21 13:33N 48°31' W 122°36'0 0.0
2016-May-21 12:33N 48°31' W 122°36'0 0.0
2016-May-21 11:26N 48°31' W 122°36'0 0.0
2016-May-21 10:26N 48°31' W 122°36'0 0.0
2016-May-21 09:33N 48°31' W 122°36'0 0.0
2016-May-21 08:33N 48°31' W 122°36'0 0.0
2016-May-21 07:20N 48°31' W 122°36'0 0.0
2016-May-21 06:33N 48°31' W 122°36'0 0.0
2016-May-21 05:32N 48°31' W 122°36'0 0.0
2016-May-21 04:32N 48°31' W 122°36'0 0.0
2016-May-21 03:32N 48°31' W 122°36'0 0.0
2016-May-21 02:32N 48°31' W 122°36'0 0.0
2016-May-21 01:32N 48°31' W 122°36'0 0.0
2016-May-21 00:32N 48°31' W 122°36'0 0.0
2016-May-20 23:32N 48°31' W 122°36'0 0.0
2016-May-20 22:32N 48°31' W 122°36'0 0.0
2016-May-20 21:32N 48°31' W 122°36'0 0.0
2016-May-20 20:32N 48°31' W 122°36'0 0.0
2016-May-20 19:32N 48°31' W 122°36'0 0.0
2016-May-20 18:32N 48°31' W 122°36'0 0.0
2016-May-20 17:32N 48°31' W 122°36'0 0.0
2016-May-20 16:32N 48°31' W 122°36'0 0.0
2016-May-20 15:32N 48°31' W 122°36'0 0.0
2016-May-20 14:32N 48°31' W 122°36'0 0.0
2016-May-20 13:32N 48°31' W 122°36'0 0.0
2016-May-20 12:32N 48°31' W 122°36'0 0.0
2016-May-20 11:32N 48°31' W 122°36'0 0.0
2016-May-20 10:32N 48°31' W 122°36'0 0.0
2016-May-20 09:32N 48°31' W 122°36'0 0.0
2016-May-20 08:32N 48°31' W 122°36'0 0.0
2016-May-20 07:32N 48°31' W 122°36'0 0.0
2016-May-20 06:32N 48°31' W 122°36'2 1.1
2016-May-20 04:33N 48°32' W 122°40'4 3.5
2016-May-20 03:33N 48°34' W 122°44'0 0.0
2016-May-20 02:33N 48°34' W 122°44'2 2.2
2016-May-20 01:33N 48°32' W 122°42'1 0.7
2016-May-20 00:33N 48°32' W 122°41'6 6.5
2016-May-19 23:33N 48°35' W 122°50'1 1.5
2016-May-19 22:33N 48°36' W 122°49'6 5.7
2016-May-19 21:33N 48°32' W 122°43'5 4.7
2016-May-19 20:34N 48°31' W 122°36'6 5.9
2016-May-19 19:33N 48°32' W 122°45'8 7.7
2016-May-19 18:34N 48°33' W 122°57'2 2.5
2016-May-19 17:33N 48°32' W 122°60'0 0.4
2016-May-19 16:33N 48°32' W 122°60'7 6.8
2016-May-19 15:33N 48°32' W 122°50'9 8.7
2016-May-19 14:34N 48°31' W 122°37'0 0.2
2016-May-19 13:28N 48°31' W 122°36'0 0.0
2016-May-19 12:28N 48°31' W 122°36'0 0.0
2016-May-19 11:28N 48°31' W 122°36'0 0.0
2016-May-19 10:28N 48°31' W 122°36'0 0.0
2016-May-19 09:28N 48°31' W 122°36'0 0.0
2016-May-19 08:28N 48°31' W 122°36'0 0.0
2016-May-19 07:28N 48°31' W 122°36'0 0.0
2016-May-19 06:28N 48°31' W 122°36'0 0.0
2016-May-19 04:28N 48°31' W 122°36'0 0.0
2016-May-19 03:28N 48°31' W 122°36'0 0.0
2016-May-19 02:28N 48°31' W 122°36'  

Dump ship's entire track history